Time;durP1;ratioP1;P1;durP2;ratioP2;P2;SDS_P1;SDS_P2;PMS_P1;PMS_P2;Temp;Humidity;BMP_temperature;BMP_pressure;BME280_temperature;BME280_humidity;BME280_pressure;Samples;Min_cycle;Max_cycle;Signal;HPM_P1;HPM_P2
2020/12/06 00:01:35;;;;;;;7.22;5.13;;;4.20;78.30;;;;;;4990293;28;20043;-75
2020/12/06 00:04:03;;;;;;;7.85;5.55;;;4.20;78.30;;;;;;5008437;28;20037;-76
2020/12/06 00:06:30;;;;;;;6.97;5.32;;;4.10;78.20;;;;;;5004354;28;20026;-74
2020/12/06 00:08:56;;;;;;;6.68;5.05;;;4.20;78.30;;;;;;4980217;28;20035;-75
2020/12/06 00:11:21;;;;;;;6.90;5.38;;;4.20;78.30;;;;;;4989237;28;20045;-75
2020/12/06 00:13:47;;;;;;;7.97;5.45;;;4.10;78.30;;;;;;4985461;28;20146;-75
2020/12/06 00:16:19;;;;;;;6.85;4.57;;;4.10;78.30;;;;;;4973579;28;20049;-75
2020/12/06 00:18:46;;;;;;;7.40;4.80;;;4.10;78.30;;;;;;4976435;28;20031;-75
2020/12/06 00:21:13;;;;;;;8.10;5.43;;;4.10;78.30;;;;;;4985374;28;20037;-75
2020/12/06 00:23:39;;;;;;;6.95;5.13;;;4.10;78.30;;;;;;4988520;28;20034;-75
2020/12/06 00:26:05;;;;;;;6.28;4.45;;;4.10;78.30;;;;;;4990031;28;20114;-75
2020/12/06 00:28:31;;;;;;;7.68;4.80;;;4.10;78.30;;;;;;4976079;28;20485;-74
2020/12/06 00:30:56;;;;;;;6.60;5.05;;;4.10;78.30;;;;;;4989220;28;20042;-75
2020/12/06 00:33:22;;;;;;;7.70;5.32;;;4.10;78.30;;;;;;4974738;28;20029;-74
2020/12/06 00:35:48;;;;;;;7.22;5.13;;;4.10;78.30;;;;;;4996531;28;20039;-75
2020/12/06 00:38:14;;;;;;;6.15;4.57;;;4.10;78.40;;;;;;4966591;28;20130;-75
2020/12/06 00:40:39;;;;;;;6.93;5.25;;;4.10;78.40;;;;;;4980482;28;20470;-75
2020/12/06 00:43:05;;;;;;;7.60;5.13;;;4.10;78.30;;;;;;4987877;28;20030;-75
2020/12/06 00:45:31;;;;;;;6.40;4.85;;;4.10;78.30;;;;;;4979527;28;20431;-74
2020/12/06 00:47:56;;;;;;;6.60;4.90;;;4.10;78.40;;;;;;4985053;28;20121;-75
2020/12/06 00:50:22;;;;;;;7.03;5.15;;;4.10;78.30;;;;;;4991377;28;20027;-75
2020/12/06 00:52:49;;;;;;;6.55;5.03;;;4.10;78.40;;;;;;4992572;28;20073;-75
2020/12/06 00:55:15;;;;;;;8.02;5.32;;;4.10;78.40;;;;;;4990154;28;20042;-75
2020/12/06 00:57:40;;;;;;;7.15;4.80;;;4.10;78.40;;;;;;4981891;28;20390;-76
2020/12/06 01:00:11;;;;;;;7.47;5.13;;;4.10;78.40;;;;;;4990995;28;20026;-75
2020/12/06 01:02:36;;;;;;;6.88;5.60;;;4.10;78.40;;;;;;4965378;28;20129;-74
2020/12/06 01:05:03;;;;;;;7.32;5.40;;;4.10;78.40;;;;;;4989988;28;20113;-75
2020/12/06 01:07:34;;;;;;;6.63;5.22;;;4.10;78.40;;;;;;4965136;28;20034;-75
2020/12/06 01:10:00;;;;;;;6.35;4.70;;;4.10;78.50;;;;;;4978154;28;20379;-75
2020/12/06 01:12:26;;;;;;;7.38;5.57;;;4.00;78.40;;;;;;4981736;28;20031;-75
2020/12/06 01:14:51;;;;;;;7.57;5.28;;;4.00;78.40;;;;;;4986612;28;20394;-75
2020/12/06 01:17:17;;;;;;;7.45;4.88;;;4.00;78.40;;;;;;4982559;28;20089;-75
2020/12/06 01:19:43;;;;;;;7.15;5.07;;;4.00;78.40;;;;;;4989688;28;20034;-75
2020/12/06 01:22:08;;;;;;;7.85;5.32;;;4.10;78.50;;;;;;4992268;28;20359;-75
2020/12/06 01:24:34;;;;;;;7.22;4.78;;;4.00;78.40;;;;;;4989370;28;20041;-75
2020/12/06 01:27:00;;;;;;;7.60;5.07;;;4.00;78.40;;;;;;4983739;28;20038;-75
2020/12/06 01:29:25;;;;;;;7.30;5.55;;;4.00;78.40;;;;;;4972715;28;20040;-75
2020/12/06 01:31:51;;;;;;;7.15;5.22;;;4.00;78.70;;;;;;4979450;28;20471;-76
2020/12/06 01:34:17;;;;;;;8.82;5.78;;;4.00;78.40;;;;;;4988415;28;20118;-75
2020/12/06 01:36:43;;;;;;;7.45;4.88;;;4.00;78.40;;;;;;4992651;28;20034;-75
2020/12/06 01:39:09;;;;;;;7.22;5.40;;;4.00;78.40;;;;;;4986064;28;20031;-75
2020/12/06 01:41:35;;;;;;;6.85;4.82;;;4.00;78.40;;;;;;4983922;28;20030;-75
2020/12/06 01:44:03;;;;;;;6.97;4.88;;;4.00;78.40;;;;;;4987836;28;20026;-75
2020/12/06 01:46:30;;;;;;;8.25;5.57;;;4.00;78.50;;;;;;4991913;28;20061;-76
2020/12/06 01:48:56;;;;;;;6.90;4.72;;;4.00;78.40;;;;;;4980962;28;20023;-75
2020/12/06 01:51:22;;;;;;;6.90;5.10;;;4.00;78.40;;;;;;4995422;28;20041;-75
2020/12/06 01:53:50;;;;;;;7.68;5.32;;;4.00;78.40;;;;;;4988814;28;20137;-75
2020/12/06 01:56:17;;;;;;;6.68;4.78;;;4.00;78.40;;;;;;4982969;28;20019;-78
2020/12/06 01:58:43;;;;;;;8.02;5.22;;;4.00;78.40;;;;;;4989791;28;20066;-75
2020/12/06 02:01:10;;;;;;;7.15;5.32;;;4.00;78.40;;;;;;4979150;28;20439;-75
2020/12/06 02:03:37;;;;;;;7.20;5.65;;;4.00;78.50;;;;;;4986895;28;20034;-76
2020/12/06 02:06:04;;;;;;;6.57;5.13;;;4.00;78.40;;;;;;4975115;28;20390;-75
2020/12/06 02:08:30;;;;;;;7.18;5.65;;;4.00;78.40;;;;;;4984365;28;20039;-75
2020/12/06 02:10:55;;;;;;;8.40;5.43;;;4.00;78.50;;;;;;4983156;28;20027;-76
2020/12/06 02:13:21;;;;;;;6.70;5.10;;;4.00;78.50;;;;;;4982373;28;20062;-77
2020/12/06 02:15:48;;;;;;;7.18;5.22;;;4.00;78.50;;;;;;4969853;28;20142;-75
2020/12/06 02:18:14;;;;;;;7.07;5.20;;;4.00;78.50;;;;;;4987259;28;20046;-74
2020/12/06 02:20:41;;;;;;;7.55;5.35;;;4.00;78.50;;;;;;4991168;28;20034;-75
2020/12/06 02:23:07;;;;;;;7.45;5.43;;;4.00;78.50;;;;;;4980480;28;20128;-75
2020/12/06 02:25:41;;;;;;;7.15;5.10;;;3.90;78.40;;;;;;4973677;28;20109;-75
2020/12/06 02:28:08;;;;;;;7.95;5.25;;;3.90;78.50;;;;;;4982399;28;20038;-75
2020/12/06 02:30:34;;;;;;;7.90;5.15;;;3.90;78.40;;;;;;4982844;28;20037;-75
2020/12/06 02:33:01;;;;;;;7.28;5.03;;;3.90;78.40;;;;;;4971219;28;20034;-75
2020/12/06 02:35:27;;;;;;;7.13;5.18;;;4.00;78.50;;;;;;4979312;28;20554;-75
2020/12/06 02:37:53;;;;;;;7.30;4.55;;;3.90;78.40;;;;;;4973673;28;20118;-76
2020/12/06 02:40:18;;;;;;;8.30;5.30;;;3.90;78.40;;;;;;4961090;28;20030;-74
2020/12/06 02:42:44;;;;;;;7.55;4.78;;;3.90;78.50;;;;;;4975726;28;20035;-75
2020/12/06 02:45:10;;;;;;;6.78;4.80;;;3.90;78.40;;;;;;5004571;28;20058;-75
2020/12/06 02:47:36;;;;;;;8.77;5.25;;;3.90;78.50;;;;;;4989812;28;20031;-75
2020/12/06 02:50:03;;;;;;;8.02;5.47;;;3.90;78.50;;;;;;4987421;28;20084;-75
2020/12/06 02:52:29;;;;;;;7.78;5.03;;;3.90;78.50;;;;;;4981399;28;20027;-75
2020/12/06 02:54:55;;;;;;;6.68;5.25;;;3.90;78.50;;;;;;4988004;28;20042;-75
2020/12/06 02:57:20;;;;;;;6.80;5.13;;;3.90;78.50;;;;;;4980740;28;20026;-75
2020/12/06 02:59:46;;;;;;;7.10;5.45;;;3.90;78.50;;;;;;4983804;28;20042;-75
2020/12/06 03:02:12;;;;;;;7.72;5.22;;;3.90;78.50;;;;;;4983044;28;20486;-75
2020/12/06 03:04:38;;;;;;;7.50;5.32;;;3.90;78.50;;;;;;4979725;28;20042;-74
2020/12/06 03:07:03;;;;;;;7.95;5.40;;;3.90;78.50;;;;;;4975170;28;20038;-75
2020/12/06 03:09:29;;;;;;;6.85;5.60;;;3.90;78.50;;;;;;4983661;28;20482;-75
2020/12/06 03:11:55;;;;;;;7.78;5.50;;;3.90;78.50;;;;;;4988029;28;20109;-76
2020/12/06 03:14:20;;;;;;;8.60;5.72;;;3.90;78.50;;;;;;4991438;28;20447;-75
2020/12/06 03:16:46;;;;;;;9.05;5.97;;;3.90;78.50;;;;;;4980240;28;20119;-75
2020/12/06 03:19:12;;;;;;;6.95;5.20;;;3.90;78.50;;;;;;4976718;28;20058;-75
2020/12/06 03:21:38;;;;;;;7.10;4.82;;;3.90;78.50;;;;;;4985357;28;20035;-75
2020/12/06 03:24:03;;;;;;;7.57;5.43;;;3.90;78.50;;;;;;4988167;28;20042;-75
2020/12/06 03:26:29;;;;;;;6.88;5.25;;;3.90;78.50;;;;;;4984337;28;20118;-75
2020/12/06 03:28:55;;;;;;;7.07;5.43;;;3.90;78.50;;;;;;4974592;28;20070;-75
2020/12/06 03:31:20;;;;;;;7.60;5.30;;;3.90;78.50;;;;;;4982156;28;20026;-75
2020/12/06 03:33:46;;;;;;;7.60;5.60;;;3.90;78.50;;;;;;4990565;28;20489;-78
2020/12/06 03:36:12;;;;;;;6.90;5.18;;;3.90;78.50;;;;;;4988806;28;20439;-75
2020/12/06 03:38:38;;;;;;;8.57;5.93;;;3.80;78.50;;;;;;4993660;28;20489;-75
2020/12/06 03:41:04;;;;;;;7.47;5.60;;;3.90;78.50;;;;;;4992650;28;20030;-75
2020/12/06 03:43:30;;;;;;;7.15;4.97;;;3.90;78.50;;;;;;4975796;28;20069;-76
2020/12/06 03:45:55;;;;;;;8.00;5.40;;;3.90;78.50;;;;;;4974191;28;20031;-75
2020/12/06 03:48:21;;;;;;;7.15;5.20;;;3.90;78.50;;;;;;4978341;28;20030;-75
2020/12/06 03:50:47;;;;;;;7.88;5.30;;;3.90;78.50;;;;;;4989651;28;20031;-80
2020/12/06 03:53:12;;;;;;;7.13;5.05;;;3.80;78.50;;;;;;4981286;28;20414;-75
2020/12/06 03:55:38;;;;;;;6.82;5.07;;;3.90;78.50;;;;;;4975398;28;20043;-74
2020/12/06 03:58:07;;;;;;;7.35;5.25;;;3.90;78.50;;;;;;4975258;28;20042;-75
2020/12/06 04:00:34;;;;;;;6.93;5.47;;;3.90;78.50;;;;;;4994105;28;20030;-75
2020/12/06 04:03:00;;;;;;;7.03;5.00;;;3.90;78.60;;;;;;4990090;28;20039;-77
2020/12/06 04:05:26;;;;;;;7.78;5.43;;;3.90;78.50;;;;;;4974726;28;20035;-75
2020/12/06 04:07:51;;;;;;;7.38;4.93;;;3.90;78.50;;;;;;4967671;28;20061;-75
2020/12/06 04:10:18;;;;;;;7.63;5.07;;;3.90;78.60;;;;;;4992793;28;20061;-75
2020/12/06 04:12:45;;;;;;;7.35;5.25;;;3.80;78.50;;;;;;4993902;28;20038;-74
2020/12/06 04:15:11;;;;;;;8.23;5.60;;;3.90;79.20;;;;;;4984995;28;20035;-75
2020/12/06 04:17:37;;;;;;;7.53;5.55;;;3.80;78.60;;;;;;4975448;28;20042;-75
2020/12/06 04:20:05;;;;;;;6.75;5.10;;;3.90;78.60;;;;;;4979668;28;20398;-76
2020/12/06 04:22:30;;;;;;;8.05;5.28;;;3.80;78.60;;;;;;4989356;28;20041;-75
2020/12/06 04:24:56;;;;;;;6.57;4.93;;;3.80;78.50;;;;;;4979308;28;20450;-75
2020/12/06 04:27:22;;;;;;;7.25;5.15;;;3.80;78.50;;;;;;4989520;28;20474;-75
2020/12/06 04:29:47;;;;;;;8.38;5.93;;;3.90;78.60;;;;;;4973966;28;20126;-75
2020/12/06 04:32:13;;;;;;;6.70;4.90;;;3.90;78.60;;;;;;4990610;28;20033;-75
2020/12/06 04:34:39;;;;;;;7.22;5.25;;;3.80;78.50;;;;;;4983092;28;20537;-74
2020/12/06 04:37:06;;;;;;;8.02;5.80;;;3.80;78.50;;;;;;4983634;28;20091;-75
2020/12/06 04:39:32;;;;;;;7.68;5.40;;;3.90;78.60;;;;;;4984574;28;20035;-75
2020/12/06 04:42:02;;;;;;;7.20;5.55;;;3.90;78.60;;;;;;4981472;28;20027;-75
2020/12/06 04:44:28;;;;;;;7.10;5.20;;;3.90;78.60;;;;;;4981805;28;20030;-75
2020/12/06 04:46:59;;;;;;;7.15;5.03;;;3.90;78.60;;;;;;4989636;28;20078;-75
2020/12/06 04:49:44;;;;;;;7.35;5.30;;;3.90;78.60;;;;;;4990831;28;20482;-75
2020/12/06 04:52:22;;;;;;;6.70;5.28;;;3.90;78.60;;;;;;4980055;28;20066;-75
2020/12/06 04:54:59;;;;;;;7.63;5.45;;;3.90;78.60;;;;;;4982444;28;20041;-75
2020/12/06 04:57:29;;;;;;;8.10;5.53;;;3.90;78.60;;;;;;4989213;28;20038;-75
2020/12/06 05:00:07;;;;;;;8.13;6.00;;;3.90;78.60;;;;;;4979437;28;20046;-75
2020/12/06 05:02:46;;;;;;;7.68;5.47;;;3.90;78.70;;;;;;5005273;28;20068;-75
2020/12/06 05:05:13;;;;;;;7.75;5.78;;;3.90;78.70;;;;;;4970375;28;20038;-75
2020/12/06 05:07:44;;;;;;;8.48;6.13;;;3.90;78.60;;;;;;4987489;28;20034;-75
2020/12/06 05:10:10;;;;;;;7.28;5.47;;;3.90;78.70;;;;;;4981263;28;20031;-75
2020/12/06 05:12:36;;;;;;;7.88;5.50;;;3.90;78.60;;;;;;4993115;28;20030;-75
2020/12/06 05:15:02;;;;;;;7.15;5.55;;;3.90;78.60;;;;;;4985386;28;20157;-75
2020/12/06 05:17:27;;;;;;;7.22;5.47;;;3.90;78.70;;;;;;4982646;28;20031;-75
2020/12/06 05:19:53;;;;;;;7.95;5.65;;;3.90;78.70;;;;;;4977067;28;20041;-75
2020/12/06 05:22:24;;;;;;;7.38;5.32;;;3.90;78.60;;;;;;4981677;28;20027;-75
2020/12/06 05:24:50;;;;;;;6.63;5.15;;;3.90;78.70;;;;;;4992661;28;20061;-75
2020/12/06 05:27:16;;;;;;;6.63;4.95;;;3.90;78.70;;;;;;4982918;28;20022;-76
2020/12/06 05:29:42;;;;;;;7.38;5.38;;;4.00;78.70;;;;;;4985033;28;20117;-75
2020/12/06 05:32:09;;;;;;;7.20;5.32;;;4.00;78.70;;;;;;4980774;28;20030;-77
2020/12/06 05:34:34;;;;;;;7.30;5.20;;;4.00;78.70;;;;;;5001568;28;20062;-75
2020/12/06 05:37:07;;;;;;;7.65;5.45;;;4.00;78.70;;;;;;4967632;28;20116;-79
2020/12/06 05:39:33;;;;;;;6.90;5.07;;;4.00;79.40;;;;;;4989675;28;20106;-75
2020/12/06 05:42:00;;;;;;;7.25;5.63;;;4.00;78.70;;;;;;4966927;28;20170;-76
2020/12/06 05:44:26;;;;;;;7.38;5.47;;;4.00;78.70;;;;;;4986017;28;20483;-75
2020/12/06 05:46:52;;;;;;;8.23;6.20;;;4.00;78.70;;;;;;4974358;28;20027;-75
2020/12/06 05:49:20;;;;;;;7.70;5.47;;;4.00;78.70;;;;;;5006209;28;20167;-75
2020/12/06 05:52:04;;;;;;;9.57;5.32;;;4.00;78.70;;;;;;4992960;28;20040;-76
2020/12/06 05:54:30;;;;;;;7.75;5.43;;;4.00;78.70;;;;;;5000767;28;20062;-75
2020/12/06 05:56:57;;;;;;;9.05;5.88;;;4.00;78.60;;;;;;4994140;28;20367;-76
2020/12/06 05:59:23;;;;;;;7.57;5.53;;;4.00;78.70;;;;;;4978975;28;20093;-75
2020/12/06 06:01:53;;;;;;;7.50;5.50;;;4.00;78.70;;;;;;4990145;28;20051;-75
2020/12/06 06:04:22;;;;;;;7.47;5.35;;;4.00;78.70;;;;;;4988195;28;20038;-76
2020/12/06 06:06:53;;;;;;;7.57;5.47;;;4.00;78.70;;;;;;4989322;28;20110;-75
2020/12/06 06:09:19;;;;;;;7.35;5.18;;;4.00;78.70;;;;;;4983777;28;20049;-75
2020/12/06 06:11:55;;;;;;;7.45;5.20;;;4.00;78.70;;;;;;4988655;28;20065;-75
2020/12/06 06:14:22;;;;;;;7.70;5.40;;;4.00;78.70;;;;;;5000461;28;20045;-75
2020/12/06 06:16:48;;;;;;;7.13;5.15;;;4.00;78.70;;;;;;4973496;28;20038;-78
2020/12/06 06:19:15;;;;;;;8.27;5.57;;;4.10;78.70;;;;;;4942522;28;20525;-75
2020/12/06 06:21:43;;;;;;;6.82;5.40;;;4.10;78.80;;;;;;4990022;28;20030;-75
2020/12/06 06:24:16;;;;;;;8.15;6.15;;;4.10;78.80;;;;;;4989027;28;20034;-78
2020/12/06 06:26:45;;;;;;;7.72;5.57;;;4.10;78.80;;;;;;4977267;28;20031;-76
2020/12/06 06:29:15;;;;;;;8.52;5.97;;;4.10;78.80;;;;;;4975482;28;20031;-75
2020/12/06 06:31:43;;;;;;;8.25;5.63;;;4.10;78.80;;;;;;4991040;28;20027;-74
2020/12/06 06:34:09;;;;;;;7.65;5.80;;;4.10;78.70;;;;;;4989334;28;20038;-75
2020/12/06 06:36:35;;;;;;;7.75;5.35;;;4.10;78.70;;;;;;4962113;28;20470;-75
2020/12/06 06:39:03;;;;;;;8.10;5.63;;;4.10;79.30;;;;;;4973280;28;20034;-75
2020/12/06 06:41:29;;;;;;;8.10;5.78;;;4.10;78.70;;;;;;4974531;28;20023;-75
2020/12/06 06:44:04;;;;;;;7.47;5.70;;;4.10;78.70;;;;;;4988189;28;20069;-77
2020/12/06 06:46:34;;;;;;;8.10;5.85;;;4.10;78.70;;;;;;4991705;28;20027;-75
2020/12/06 06:49:11;;;;;;;8.40;6.00;;;4.10;78.70;;;;;;4991966;28;20097;-77
2020/12/06 06:51:37;;;;;;;7.70;5.70;;;4.20;78.80;;;;;;4988477;28;20053;-75
2020/12/06 06:54:08;;;;;;;8.13;5.78;;;4.20;78.70;;;;;;4984845;28;20038;-75
2020/12/06 06:56:53;;;;;;;8.55;5.93;;;4.10;78.70;;;;;;4962916;28;20133;-74
2020/12/06 06:59:37;;;;;;;7.80;5.70;;;4.20;78.80;;;;;;4991476;28;20655;-74
2020/12/06 07:02:04;;;;;;;7.57;5.40;;;4.10;78.70;;;;;;4990255;28;20050;-75
2020/12/06 07:04:30;;;;;;;8.10;5.75;;;4.20;78.70;;;;;;4984195;28;20038;-75
2020/12/06 07:06:56;;;;;;;8.07;5.72;;;4.20;78.70;;;;;;4983450;28;20035;-74
2020/12/06 07:09:30;;;;;;;8.98;6.63;;;4.20;78.80;;;;;;4976792;28;20031;-75
2020/12/06 07:11:58;;;;;;;8.57;6.07;;;4.20;78.80;;;;;;4988523;28;20038;-75
2020/12/06 07:14:26;;;;;;;8.25;5.82;;;4.20;78.80;;;;;;4994884;28;20033;-75
2020/12/06 07:16:56;;;;;;;7.70;5.55;;;4.20;79.40;;;;;;4994152;28;20390;-75
2020/12/06 07:19:22;;;;;;;8.45;6.00;;;4.20;78.80;;;;;;4983746;28;20022;-75
2020/12/06 07:21:49;;;;;;;8.25;5.72;;;4.20;78.80;;;;;;4970848;28;20391;-75
2020/12/06 07:24:17;;;;;;;8.90;6.15;;;4.20;78.80;;;;;;4979339;28;20038;-75
2020/12/06 07:26:43;;;;;;;8.07;5.65;;;4.20;78.80;;;;;;5004706;28;20031;-75
2020/12/06 07:29:10;;;;;;;8.60;6.32;;;4.20;78.80;;;;;;4979277;28;20030;-75
2020/12/06 07:31:36;;;;;;;8.00;5.32;;;4.20;78.80;;;;;;4984550;28;20027;-75
2020/12/06 07:34:02;;;;;;;8.05;5.50;;;4.20;78.80;;;;;;4985160;28;20049;-75
2020/12/06 07:36:35;;;;;;;8.88;6.20;;;4.20;78.80;;;;;;4991203;28;20027;-75
2020/12/06 07:39:16;;;;;;;8.25;5.60;;;4.20;78.80;;;;;;4979368;28;20038;-75
2020/12/06 07:41:49;;;;;;;8.02;5.90;;;4.30;78.90;;;;;;4998544;28;20367;-75
2020/12/06 07:44:16;;;;;;;8.57;6.07;;;4.30;78.80;;;;;;4985723;28;20037;-75
2020/12/06 07:46:42;;;;;;;9.43;6.53;;;4.30;78.80;;;;;;4975633;28;20432;-75
2020/12/06 07:49:09;;;;;;;8.65;6.28;;;4.30;78.80;;;;;;4974656;28;20031;-75
2020/12/06 07:51:35;;;;;;;7.57;5.43;;;4.30;78.80;;;;;;4989784;28;20462;-76
2020/12/06 07:54:02;;;;;;;8.38;5.78;;;4.30;78.80;;;;;;4994855;28;20031;-76
2020/12/06 07:56:32;;;;;;;9.07;6.55;;;4.30;78.80;;;;;;4988765;28;20038;-76
2020/12/06 07:59:18;;;;;;;9.07;6.05;;;4.30;78.90;;;;;;4977212;28;20201;-76
2020/12/06 08:01:46;;;;;;;7.40;5.03;;;4.30;78.90;;;;;;4983532;28;20497;-77
2020/12/06 08:04:14;;;;;;;9.07;6.30;;;4.30;78.80;;;;;;4984566;28;20533;-75
2020/12/06 08:06:44;;;;;;;8.95;6.47;;;4.30;78.80;;;;;;4990354;28;20041;-75
2020/12/06 08:09:12;;;;;;;7.80;5.63;;;4.30;78.80;;;;;;4984698;28;20030;-75
2020/12/06 08:11:45;;;;;;;8.30;5.70;;;4.30;78.80;;;;;;4994108;28;20038;-75
2020/12/06 08:14:16;;;;;;;8.55;6.25;;;4.30;78.80;;;;;;4988655;28;20474;-78
2020/12/06 08:16:55;;;;;;;7.25;5.60;;;4.30;79.50;;;;;;5001540;28;20031;-76
2020/12/06 08:19:23;;;;;;;8.07;6.00;;;4.30;78.80;;;;;;4982214;28;20022;-75
2020/12/06 08:21:49;;;;;;;9.10;5.95;;;4.40;78.80;;;;;;4991149;28;20535;-76
2020/12/06 08:24:19;;;;;;;8.27;5.85;;;4.40;78.90;;;;;;4997948;28;20062;-75
2020/12/06 08:26:46;;;;;;;8.68;6.30;;;4.40;78.90;;;;;;4993351;28;20106;-77
2020/12/06 08:29:12;;;;;;;9.13;6.05;;;4.40;78.80;;;;;;4999554;28;20479;-75
2020/12/06 08:31:38;;;;;;;8.40;5.75;;;4.40;78.80;;;;;;4977382;28;20494;-75
2020/12/06 08:34:15;;;;;;;8.73;6.25;;;4.40;78.80;;;;;;4990142;28;20063;-76
2020/12/06 08:36:41;;;;;;;8.95;6.25;;;4.40;78.90;;;;;;4984080;28;20038;-75
2020/12/06 08:39:20;;;;;;;7.80;5.65;;;4.40;78.80;;;;;;4983020;28;20037;-76
2020/12/06 08:41:47;;;;;;;7.85;5.70;;;4.40;78.90;;;;;;4971396;28;20027;-75
2020/12/06 08:44:13;;;;;;;8.35;5.82;;;4.40;79.40;;;;;;4973853;28;20043;-77
2020/12/06 08:46:49;;;;;;;9.23;6.43;;;4.40;78.80;;;;;;4991349;28;20489;-75
2020/12/06 08:49:18;;;;;;;9.77;5.93;;;4.40;78.90;;;;;;4982325;28;20147;-75
2020/12/06 08:51:52;;;;;;;7.35;5.20;;;4.40;78.80;;;;;;4983704;28;20031;-75
2020/12/06 08:54:36;;;;;;;7.63;5.35;;;4.40;78.80;;;;;;4988643;28;20507;-75
2020/12/06 08:57:06;;;;;;;8.80;6.43;;;4.40;78.90;;;;;;5002492;28;20030;-78
2020/12/06 08:59:35;;;;;;;8.40;6.00;;;4.40;78.80;;;;;;4989517;28;20080;-76
2020/12/06 09:02:01;;;;;;;8.60;6.15;;;4.40;78.80;;;;;;4989150;28;20054;-75
2020/12/06 09:04:27;;;;;;;8.25;6.18;;;4.50;78.90;;;;;;4997892;28;20070;-75
2020/12/06 09:06:54;;;;;;;8.90;6.45;;;4.40;78.80;;;;;;4987369;28;20418;-76
2020/12/06 09:09:20;;;;;;;8.25;6.22;;;4.40;78.80;;;;;;4990127;28;20035;-76
2020/12/06 09:11:46;;;;;;;8.65;5.75;;;4.50;78.90;;;;;;4971708;28;20039;-75
2020/12/06 09:14:12;;;;;;;7.40;5.57;;;4.40;78.80;;;;;;4970143;28;20422;-76
2020/12/06 09:16:38;;;;;;;8.48;6.10;;;4.50;78.90;;;;;;4972741;28;20119;-76
2020/12/06 09:19:04;;;;;;;9.25;5.90;;;4.50;78.90;;;;;;4985139;28;20030;-76
2020/12/06 09:21:30;;;;;;;8.75;6.32;;;4.50;78.90;;;;;;4974327;28;20100;-76
2020/12/06 09:23:56;;;;;;;8.25;5.97;;;4.50;78.90;;;;;;4995233;28;20027;-75
2020/12/06 09:26:21;;;;;;;8.38;6.05;;;4.50;78.90;;;;;;4987057;28;20386;-76
2020/12/06 09:28:47;;;;;;;9.32;6.43;;;4.50;78.90;;;;;;4980125;28;20031;-75
2020/12/06 09:31:13;;;;;;;9.00;6.35;;;4.50;78.90;;;;;;4982793;28;20023;-75
2020/12/06 09:33:39;;;;;;;9.70;6.60;;;4.50;79.00;;;;;;4988073;28;20031;-75
2020/12/06 09:36:04;;;;;;;8.68;6.05;;;4.50;79.00;;;;;;5002601;28;20453;-80
2020/12/06 09:38:31;;;;;;;8.95;6.60;;;4.50;79.00;;;;;;4967725;28;20439;-75
2020/12/06 09:40:57;;;;;;;10.10;7.00;;;4.50;79.00;;;;;;4988703;28;20019;-76
2020/12/06 09:43:23;;;;;;;9.40;6.75;;;4.50;79.00;;;;;;4989307;28;20034;-76
2020/12/06 09:45:49;;;;;;;9.95;7.00;;;4.60;79.00;;;;;;4989155;28;20057;-75
2020/12/06 09:48:15;;;;;;;9.68;6.75;;;4.60;79.10;;;;;;4984082;28;20513;-75
2020/12/06 09:50:41;;;;;;;9.90;6.72;;;4.60;79.00;;;;;;5003014;28;20062;-76
2020/12/06 09:53:07;;;;;;;9.95;7.18;;;4.60;79.00;;;;;;4989190;28;20033;-77
2020/12/06 09:55:33;;;;;;;9.38;7.00;;;4.60;79.00;;;;;;4984828;28;20042;-78
2020/12/06 09:57:58;;;;;;;9.00;6.57;;;4.60;79.00;;;;;;4986515;28;20045;-76
2020/12/06 10:00:24;;;;;;;8.38;6.13;;;4.70;79.20;;;;;;5002455;28;20557;-76
2020/12/06 10:02:50;;;;;;;9.10;6.78;;;4.70;79.00;;;;;;4998562;28;20117;-76
2020/12/06 10:05:16;;;;;;;10.32;7.30;;;4.70;79.00;;;;;;4989917;28;20425;-76
2020/12/06 10:07:42;;;;;;;9.10;6.85;;;4.70;79.00;;;;;;4989917;28;20039;-76
2020/12/06 10:10:08;;;;;;;9.02;6.75;;;4.70;79.00;;;;;;4972996;28;20092;-77
2020/12/06 10:12:35;;;;;;;11.07;6.88;;;4.80;79.10;;;;;;4986243;28;20022;-81
2020/12/06 10:15:03;;;;;;;9.75;7.18;;;4.80;79.10;;;;;;4982873;28;20032;-77
2020/12/06 10:17:30;;;;;;;9.50;6.85;;;4.80;79.10;;;;;;4969594;28;20499;-75
2020/12/06 10:19:55;;;;;;;10.43;7.22;;;4.80;79.00;;;;;;4971885;28;20034;-75
2020/12/06 10:22:21;;;;;;;9.93;7.35;;;4.80;79.00;;;;;;4990570;28;20035;-75
2020/12/06 10:24:49;;;;;;;10.00;7.10;;;4.80;79.00;;;;;;4991233;28;20042;-76
2020/12/06 10:27:15;;;;;;;10.00;6.82;;;4.90;79.10;;;;;;4954768;28;20045;-75
2020/12/06 10:29:41;;;;;;;10.45;7.45;;;4.90;79.10;;;;;;4976964;28;20378;-76
2020/12/06 10:32:07;;;;;;;10.65;7.82;;;4.90;79.10;;;;;;4991575;28;20042;-77
2020/12/06 10:34:32;;;;;;;9.82;6.82;;;4.90;79.10;;;;;;4967558;28;20458;-76
2020/12/06 10:36:59;;;;;;;10.77;7.35;;;4.90;79.00;;;;;;4993652;28;20035;-76
2020/12/06 10:39:25;;;;;;;10.45;7.40;;;5.00;79.10;;;;;;5001220;28;20022;-75
2020/12/06 10:41:55;;;;;;;10.90;7.63;;;5.00;79.10;;;;;;4988083;28;20490;-76
2020/12/06 10:44:21;;;;;;;10.00;7.00;;;5.00;79.10;;;;;;4968912;28;20055;-75
2020/12/06 10:46:47;;;;;;;10.13;7.15;;;5.00;79.10;;;;;;4983528;28;20529;-78
2020/12/06 10:49:14;;;;;;;10.82;7.50;;;5.00;79.10;;;;;;4974384;28;20559;-76
2020/12/06 10:51:41;;;;;;;10.18;7.55;;;5.10;79.20;;;;;;4990802;28;20029;-77
2020/12/06 10:54:08;;;;;;;11.02;7.65;;;5.10;79.10;;;;;;4995144;28;20057;-76
2020/12/06 10:56:35;;;;;;;9.80;7.15;;;5.10;79.10;;;;;;4990294;28;20347;-78
2020/12/06 10:59:01;;;;;;;10.07;7.07;;;5.10;79.10;;;;;;4984978;28;20027;-76
2020/12/06 11:01:28;;;;;;;10.45;7.00;;;5.20;79.20;;;;;;4985369;28;20518;-78
2020/12/06 11:03:54;;;;;;;10.25;7.25;;;5.20;79.20;;;;;;4951044;28;20189;-77
2020/12/06 11:06:23;;;;;;;10.40;7.35;;;5.20;79.20;;;;;;4992571;28;20461;-77
2020/12/06 11:08:50;;;;;;;9.50;7.07;;;5.20;79.20;;;;;;4989558;28;20026;-76
2020/12/06 11:11:17;;;;;;;11.35;7.50;;;5.20;79.20;;;;;;4966331;28;20031;-76
2020/12/06 11:13:44;;;;;;;9.73;6.47;;;5.20;79.20;;;;;;4965114;28;20451;-78
2020/12/06 11:16:13;;;;;;;9.60;7.10;;;5.20;79.20;;;;;;4992507;28;20042;-77
2020/12/06 11:18:39;;;;;;;10.20;7.30;;;5.30;79.30;;;;;;4978428;28;20165;-75
2020/12/06 11:21:05;;;;;;;10.00;6.82;;;5.30;79.20;;;;;;4992196;28;20110;-76
2020/12/06 11:23:31;;;;;;;9.40;6.60;;;5.30;79.20;;;;;;4983978;28;20033;-75
2020/12/06 11:25:56;;;;;;;9.55;7.30;;;5.40;79.20;;;;;;4946861;28;20049;-75
2020/12/06 11:28:22;;;;;;;9.90;7.03;;;5.40;79.20;;;;;;4984952;28;20690;-75
2020/12/06 11:30:48;;;;;;;10.50;7.25;;;5.40;79.20;;;;;;4994244;28;20038;-75
2020/12/06 11:33:13;;;;;;;10.32;6.90;;;5.40;79.20;;;;;;5001610;28;20032;-76
2020/12/06 11:35:39;;;;;;;10.30;7.30;;;5.50;79.20;;;;;;4983960;28;20036;-75
2020/12/06 11:38:05;;;;;;;10.73;7.53;;;5.50;79.20;;;;;;4976647;28;20039;-76
2020/12/06 11:40:31;;;;;;;10.82;7.80;;;5.50;79.20;;;;;;4992953;28;20035;-76
2020/12/06 11:42:57;;;;;;;9.93;7.03;;;5.50;79.20;;;;;;4992456;28;20494;-76
2020/12/06 11:45:23;;;;;;;11.07;7.88;;;5.50;79.20;;;;;;4973243;28;20037;-75
2020/12/06 11:47:49;;;;;;;9.93;7.25;;;5.50;79.20;;;;;;4964369;28;20034;-75
2020/12/06 11:50:15;;;;;;;10.30;6.95;;;5.60;79.20;;;;;;4980863;28;20049;-77
2020/12/06 11:52:41;;;;;;;9.82;6.95;;;5.60;79.20;;;;;;4990558;28;20027;-78
2020/12/06 11:55:07;;;;;;;10.02;7.35;;;5.60;79.20;;;;;;4973188;28;20519;-78
2020/12/06 11:57:33;;;;;;;10.25;7.28;;;5.70;79.30;;;;;;4989777;28;20059;-77
2020/12/06 11:59:58;;;;;;;10.27;7.15;;;5.70;79.20;;;;;;4981713;28;20375;-77
2020/12/06 12:02:24;;;;;;;9.73;6.55;;;5.70;79.20;;;;;;4974217;28;20063;-77
2020/12/06 12:04:50;;;;;;;10.20;6.97;;;5.70;79.20;;;;;;4991910;28;20532;-77
2020/12/06 12:07:18;;;;;;;11.05;7.35;;;5.70;79.20;;;;;;4977444;28;20037;-78
2020/12/06 12:09:44;;;;;;;10.63;6.78;;;5.80;79.30;;;;;;4982187;28;20035;-77
2020/12/06 12:12:10;;;;;;;9.93;7.38;;;5.80;79.20;;;;;;4958202;28;20026;-78
2020/12/06 12:14:35;;;;;;;9.85;6.75;;;5.80;79.20;;;;;;4983591;28;20089;-78
2020/12/06 12:17:01;;;;;;;10.32;7.13;;;5.90;79.30;;;;;;4992519;28;20022;-78
2020/12/06 12:19:27;;;;;;;9.05;6.60;;;5.90;79.30;;;;;;4991248;28;20145;-78
2020/12/06 12:21:53;;;;;;;10.40;7.00;;;5.90;79.30;;;;;;4990396;28;20057;-77
2020/12/06 12:24:19;;;;;;;10.70;6.85;;;5.90;79.20;;;;;;4993322;28;20035;-78
2020/12/06 12:26:44;;;;;;;11.32;7.40;;;5.90;79.20;;;;;;4991928;28;20181;-78
2020/12/06 12:29:10;;;;;;;9.82;6.93;;;5.90;79.20;;;;;;4961773;28;20037;-77
2020/12/06 12:31:36;;;;;;;10.65;7.38;;;6.00;79.30;;;;;;4980520;28;20378;-78
2020/12/06 12:34:01;;;;;;;8.75;6.60;;;6.00;79.20;;;;;;4967758;28;20026;-77
2020/12/06 12:36:27;;;;;;;10.73;7.00;;;6.00;79.20;;;;;;4999543;28;20054;-78
2020/12/06 12:38:53;;;;;;;9.75;7.00;;;6.00;79.20;;;;;;4973798;28;20496;-77
2020/12/06 12:41:19;;;;;;;10.50;6.68;;;6.00;79.20;;;;;;4979002;28;20046;-77
2020/12/06 12:43:45;;;;;;;10.23;6.93;;;6.00;79.20;;;;;;4972382;28;20038;-78
2020/12/06 12:46:11;;;;;;;8.82;6.47;;;6.10;79.20;;;;;;4970928;28;20146;-77
2020/12/06 12:48:37;;;;;;;9.80;7.00;;;6.10;79.20;;;;;;4984615;28;20038;-77
2020/12/06 12:51:02;;;;;;;9.93;6.90;;;6.10;79.20;;;;;;4982310;28;20034;-77
2020/12/06 12:53:28;;;;;;;9.93;6.78;;;6.20;79.20;;;;;;4957645;28;20034;-77
2020/12/06 12:55:54;;;;;;;10.02;6.95;;;6.20;79.20;;;;;;4998124;28;20043;-78